Flight Track Log - Related Links

Times and Time Zones

All times are in EDT time to prevent confusion due to time zone crossing. See the AWE1913 flight status page for this flight to view local times or setup timezone preferences in your user account.

Time Position Orientation Groundspeed Altitude Reporting Facility
EDT Latitude Longitude Course Direction KTS MPH feet Rate Location/Type
Sat 07:54:00 AM 40.4038 -79.3996 102° East  Level Estimated
Sat 07:55:00 AM 40.3809 -79.1917 98° East  Level Estimated
Sat 07:55:47 AM 40.5650 -80.0560 97° East 336 387 10,900  Level FlightAware ADS-B
Sat 07:56:00 AM 40.3577 -78.9838 97° East  Level Estimated
Sat 07:56:32 AM 40.5470 -79.9620 104° East 371 427 12,500  Level FlightAware ADS-B
Sat 07:57:12 AM 40.5290 -79.8710 105° East 374 430 13,400 2,047 Climbing FlightAware ADS-B
Sat 07:57:57 AM 40.5290 -79.8700 90° East 380 437 15,400 1,412 Climbing FlightAware ADS-B
Sat 07:58:37 AM 40.5150 -79.7940 104° East 380 437 15,400 1,154 Level FlightAware ADS-B
Sat 07:59:17 AM 40.5400 -79.9250 284° West 19,900 1,285 Climbing FlightAware ADS-B
Sat 08:04:32 AM 40.3170 -78.8020 104° East 437 503 23,000 524 Climbing FlightAware ADS-B
Sat 08:05:12 AM 40.3170 -78.6920 90° East 438 504 23,000  Level FlightAware ADS-B
Sat 08:05:57 AM 40.3170 -78.5730 90° East 437 503 23,000  Level FlightAware ADS-B
Sat 08:06:37 AM 40.3170 -78.5730 90° East 435 501 23,000  Level FlightAware ADS-B
Sat 08:07:27 AM 40.3160 -78.3420 90° East 434 499 23,000  Level FlightAware ADS-B
Sat 08:08:17 AM 40.3150 -78.2070 91° East 23,000  Level FlightAware ADS-B
Sat 08:08:57 AM 40.3140 -78.1030 91° East 432 497 23,000  Level FlightAware ADS-B
Sat 08:09:32 AM 40.3140 -78.0210 90° East 432 497 23,000  Level FlightAware ADS-B
Sat 08:10:22 AM 40.3140 -77.9100 90° East 432 497 23,000 -405 Level FlightAware ADS-B
Sat 08:15:42 AM 40.2970 -77.0500 91° East 417 480 20,500 -517 Descending FlightAware ADS-B
Sat 08:16:22 AM 40.2760 -76.9540 106° East 411 473 19,900 -918 Descending FlightAware ADS-B
Sat 08:17:07 AM 40.2510 -76.8500 107° East 409 471 19,200 -1,068 Descending FlightAware ADS-B
Sat 08:17:35 AM 40.2327 -76.7692 106° East 407 468 18,600 -1,119 Descending FlightAware ADS-B
Sat 08:18:06 AM 40.2154 -76.6949 107° East 406 467 18,100 -871 Descending FlightAware ADS-B
Sat 08:18:37 AM 40.1988 -76.6244 107° East 405 466 17,700 -1,292 Descending FlightAware ADS-B
Sat 08:19:11 AM 40.1803 -76.5453 107° East 401 461 16,700 -1,818 Descending FlightAware ADS-B
Sat 08:19:43 AM 40.1625 -76.4700 107° East 395 455 15,700 -2,032 Descending FlightAware ADS-B
Sat 08:20:13 AM 40.1463 -76.4011 107° East 394 453 14,600 -1,967 Descending FlightAware ADS-B
Sat 08:20:44 AM 40.1297 -76.3312 107° East 385 443 13,700 -1,647 Descending FlightAware ADS-B
Sat 08:21:04 AM 40.1210 -76.2883 105° East 383 441 13,200 -1,800 Descending FlightAware ADS-B
Sat 08:21:34 AM 40.1154 -76.2191 96° East 380 437 12,200 -1,900 Descending FlightAware ADS-B
Sat 08:22:04 AM 40.1107 -76.1501 95° East 376 433 11,300 -1,258 Descending FlightAware ADS-B
Sat 08:22:36 AM 40.1059 -76.0797 95° East 354 407 10,900 -938 Descending FlightAware ADS-B
Sat 08:23:08 AM 40.1012 -76.0141 95° East 336 387 10,300 -1,304 Descending FlightAware ADS-B
Sat 08:23:22 AM 40.0992 -75.9856 95° East 334 384 9,900 -1,400 Descending FlightAware ADS-B
Sat 08:23:38 AM 40.0969 -75.9530 95° East 331 381 9,600 -1,273 Descending FlightAware ADS-B
Sat 08:23:55 AM 40.0945 -75.9194 95° East 324 373 9,200 -1,455 Descending FlightAware ADS-B
Sat 08:24:11 AM 40.0924 -75.8894 95° East 322 371 8,800 -1,636 Descending FlightAware ADS-B
Sat 08:24:28 AM 40.0900 -75.8569 96° East 323 372 8,300 -1,235 Descending FlightAware ADS-B
Sat 08:24:45 AM 40.0877 -75.8244 95° East 315 362 8,100 -563 Descending FlightAware ADS-B
Sat 08:25:00 AM 40.0857 -75.7951 95° East 313 360 8,000 -194 Descending FlightAware ADS-B
Sat 08:25:16 AM 40.0836 -75.7658 95° East 305 351 8,000 -545 Level FlightAware ADS-B
Sat 08:25:33 AM 40.0813 -75.7341 95° East 301 346 7,700 -1,143 Descending FlightAware ADS-B
Sat 08:25:37 AM 40.0809 -75.7271 94° East 302 348 7,600 -667 Descending FlightAware ADS-B
Sat 08:25:42 AM 40.0809 -75.7181 90° East 302 348 7,600 -667 Level FlightAware ADS-B
Sat 08:25:46 AM 40.0814 -75.7106 85° East 302 348 7,500 -1,200 Descending FlightAware ADS-B
Sat 08:25:52 AM 40.0834 -75.7004 76° East 301 346 7,400 -923 Descending FlightAware ADS-B
Sat 08:25:59 AM 40.0871 -75.6885 68° East 299 344 7,300 -818 Descending FlightAware ADS-B
Sat 08:26:14 AM 40.0966 -75.6642 63° Northeast 299 344 7,100 -621 Descending FlightAware ADS-B
Sat 08:26:28 AM 40.1056 -75.6414 63° Northeast 298 343 7,000 -200 Descending FlightAware ADS-B
Sat 08:26:44 AM 40.1157 -75.6160 63° Northeast 297 342 7,000  Level FlightAware ADS-B
Sat 08:27:00 AM 40.1257 -75.5909 62° Northeast 299 344 7,000  Level FlightAware ADS-B
Sat 08:27:15 AM 40.1353 -75.5663 63° Northeast 299 344 7,000  Level FlightAware ADS-B
Sat 08:27:31 AM 40.1453 -75.5412 62° Northeast 298 343 7,000  Level FlightAware ADS-B
Sat 08:27:46 AM 40.1549 -75.5170 63° Northeast 292 336 7,000  Level FlightAware ADS-B
Sat 08:28:01 AM 40.1642 -75.4933 63° Northeast 283 326 7,000  Level FlightAware ADS-B
Sat 08:28:17 AM 40.1730 -75.4704 63° Northeast 275 316 7,000  Level FlightAware ADS-B
Sat 08:28:32 AM 40.1819 -75.4477 63° Northeast 275 316 7,000  Level FlightAware ADS-B
Sat 08:28:47 AM 40.1908 -75.4250 63° Northeast 275 316 7,000  Level FlightAware ADS-B
Sat 08:29:03 AM 40.2001 -75.4011 63° Northeast 277 319 7,000  Level FlightAware ADS-B
Sat 08:29:19 AM 40.2090 -75.3777 64° Northeast 275 316 7,000  Level FlightAware ADS-B
Sat 08:29:35 AM 40.2181 -75.3544 63° Northeast 275 316 7,000  Level FlightAware ADS-B
Sat 08:29:41 AM 40.2214 -75.3454 64° Northeast 277 319 7,000  Level FlightAware ADS-B
Sat 08:29:44 AM 40.2230 -75.3395 70° East 277 319 7,000  Level FlightAware ADS-B
Sat 08:29:50 AM 40.2244 -75.3312 78° East 276 318 7,000  Level FlightAware ADS-B
Sat 08:29:55 AM 40.2247 -75.3222 87° East 275 316 7,000  Level FlightAware ADS-B
Sat 08:30:00 AM 40.2242 -75.3141 95° East 273 314 7,000  Level FlightAware ADS-B
Sat 08:30:04 AM 40.2231 -75.3082 104° East 271 312 7,000  Level FlightAware ADS-B
Sat 08:30:09 AM 40.2214 -75.3000 105° East 268 308 7,000  Level FlightAware ADS-B
Sat 08:30:15 AM 40.2190 -75.2904 108° East 264 304 7,000  Level FlightAware ADS-B
Sat 08:30:30 AM 40.2135 -75.2679 108° East 260 299 7,000  Level FlightAware ADS-B
Sat 08:30:45 AM 40.2078 -75.2452 108° East 258 297 7,000  Level FlightAware ADS-B
Sat 08:30:49 AM 40.2061 -75.2400 113° Southeast 259 298 7,000  Level FlightAware ADS-B
Sat 08:30:53 AM 40.2037 -75.2345 120° Southeast 258 297 7,000  Level FlightAware ADS-B
Sat 08:30:59 AM 40.1994 -75.2274 128° Southeast 256 295 7,000 -545 Level FlightAware ADS-B
Sat 08:31:04 AM 40.1949 -75.2225 140° Southeast 254 292 6,900 -750 Descending FlightAware ADS-B
Sat 08:31:07 AM 40.1918 -75.2200 148° Southeast 252 290 6,900 -1,000 Level FlightAware ADS-B
Sat 08:31:10 AM 40.1881 -75.2178 156° South 249 287 6,800 -750 Descending FlightAware ADS-B
Sat 08:31:15 AM 40.1833 -75.2158 162° South 245 282 6,800 -750 Level FlightAware ADS-B
Sat 08:31:18 AM 40.1799 -75.2150 170° South 242 278 6,700 -1,636 Descending FlightAware ADS-B
Sat 08:31:26 AM 40.1709 -75.2141 176° South 240 276 6,500 -1,565 Descending FlightAware ADS-B
Sat 08:31:41 AM 40.1538 -75.2128 177° South 244 281 6,100 -909 Descending FlightAware ADS-B
Sat 08:31:59 AM 40.1338 -75.2109 176° South 235 270 6,000 -188 Descending FlightAware ADS-B
Sat 08:32:13 AM 40.1185 -75.2097 177° South 225 259 6,000  Level FlightAware ADS-B
Sat 08:32:29 AM 40.1029 -75.2084 176° South 221 254 6,000  Level FlightAware ADS-B
Sat 08:32:45 AM 40.0864 -75.2070 176° South 224 258 6,000  Level FlightAware ADS-B
Sat 08:33:01 AM 40.0696 -75.2053 176° South 226 260 6,000  Level FlightAware ADS-B
Sat 08:33:10 AM 40.0604 -75.2043 175° South 225 259 6,000  Level FlightAware ADS-B
Sat 08:33:15 AM 40.0551 -75.2034 173° South 227 261 6,000  Level FlightAware ADS-B
Sat 08:33:18 AM 40.0514 -75.2024 168° South 228 262 6,000  Level FlightAware ADS-B
Sat 08:33:33 AM 40.0360 -75.1970 165° South 230 265 6,000  Level FlightAware ADS-B
Sat 08:33:48 AM 40.0204 -75.1912 164° South 230 265 6,000  Level FlightAware ADS-B
Sat 08:34:05 AM 40.0030 -75.1849 164° South 232 267 6,000  Level FlightAware ADS-B
Sat 08:34:12 AM 39.9962 -75.1819 161° South 237 273 6,000  Level FlightAware ADS-B
Sat 08:34:15 AM 39.9928 -75.1799 156° South 240 276 6,000  Level FlightAware ADS-B
Sat 08:34:19 AM 39.9888 -75.1766 148° Southeast 244 281 6,000  Level FlightAware ADS-B
Sat 08:34:23 AM 39.9852 -75.1729 142° Southeast 248 285 6,000  Level FlightAware ADS-B
Sat 08:34:31 AM 39.9795 -75.1633 128° Southeast 250 288 6,000  Level FlightAware ADS-B
Sat 08:34:34 AM 39.9780 -75.1592 116° Southeast 249 287 6,000  Level FlightAware ADS-B
Sat 08:34:41 AM 39.9762 -75.1502 105° East 248 285 6,000  Level FlightAware ADS-B
Sat 08:34:44 AM 39.9760 -75.1447 93° East 247 284 6,000  Level FlightAware ADS-B
Sat 08:34:49 AM 39.9764 -75.1380 86° East 243 280 6,000  Level FlightAware ADS-B
Sat 08:34:53 AM 39.9774 -75.1317 78° East 237 273 6,000  Level FlightAware ADS-B
Sat 08:35:00 AM 39.9794 -75.1229 73° East 232 267 6,000  Level FlightAware ADS-B
Sat 08:35:15 AM 39.9856 -75.1028 68° East 229 264 6,000 -462 Level FlightAware ADS-B
Sat 08:35:26 AM 39.9896 -75.0891 69° East 229 264 5,800 -889 Descending FlightAware ADS-B
Sat 08:35:42 AM 39.9947 -75.0688 72° East 227 261 5,600 -960 Descending FlightAware ADS-B
Sat 08:35:51 AM 39.9977 -75.0560 73° East 223 257 5,400 -1,111 Descending FlightAware ADS-B
Sat 08:36:09 AM 40.0026 -75.0336 74° East 223 257 5,100 -649 Descending FlightAware ADS-B
Sat 08:36:28 AM 40.0080 -75.0094 74° East 218 251 5,000 -130 Descending FlightAware ADS-B
Sat 08:36:55 AM 40.0157 -74.9743 74° East 220 253 5,000  Level FlightAware ADS-B
Sat 08:37:12 AM 40.0205 -74.9525 74° East 217 250 5,000  Level FlightAware ADS-B
Sat 08:37:30 AM 40.0256 -74.9298 74° East 218 251 5,000  Level FlightAware ADS-B
Sat 08:37:46 AM 40.0301 -74.9095 74° East 219 252 5,000  Level FlightAware ADS-B
Sat 08:37:52 AM 40.0313 -74.9028 77° East 221 254 5,000 -400 Level FlightAware ADS-B
Sat 08:38:01 AM 40.0314 -74.8900 89° East 225 259 4,900 -500 Descending FlightAware ADS-B
Sat 08:38:04 AM 40.0308 -74.8858 101° East 227 261 4,900 -857 Level FlightAware ADS-B
Sat 08:38:08 AM 40.0293 -74.8804 110° East 227 261 4,800 -667 Descending FlightAware ADS-B
Sat 08:38:13 AM 40.0271 -74.8749 118° Southeast 227 261 4,800 -750 Level FlightAware ADS-B
Sat 08:38:16 AM 40.0251 -74.8711 125° Southeast 228 262 4,700 -2,000 Descending FlightAware ADS-B
Sat 08:38:22 AM 40.0207 -74.8655 136° Southeast 227 261 4,500 -1,286 Descending FlightAware ADS-B
Sat 08:38:30 AM 40.0136 -74.8600 149° Southeast 224 258 4,400 -1,286 Descending FlightAware ADS-B
Sat 08:38:36 AM 40.0080 -74.8579 164° South 221 254 4,200 -1,200 Descending FlightAware ADS-B
Sat 08:38:40 AM 40.0041 -74.8574 174° South 218 251 4,200 -857 Level FlightAware ADS-B
Sat 08:38:43 AM 40.0008 -74.8576 183° South 213 245 4,100 -857 Descending FlightAware ADS-B
Sat 08:38:47 AM 39.9973 -74.8583 189° South 211 243 4,100  Level FlightAware ADS-B
Sat 08:38:53 AM 39.9918 -74.8610 201° Southwest 204 235 4,100 -500 Level FlightAware ADS-B
Sat 08:38:59 AM 39.9868 -74.8653 213° Southwest 199 229 4,000 -286 Descending FlightAware ADS-B
Sat 08:39:14 AM 39.9766 -74.8765 220° Southwest 198 228 4,000  Level FlightAware ADS-B
Sat 08:39:32 AM 39.9643 -74.8909 222° Southwest 196 226 4,000  Level FlightAware ADS-B
Sat 08:39:51 AM 39.9510 -74.9062 221° Southwest 195 224 4,000  Level FlightAware ADS-B
Sat 08:39:56 AM 39.9478 -74.9103 224° Southwest 192 221 4,000 -333 Level FlightAware ADS-B
Sat 08:40:09 AM 39.9414 -74.9216 234° Southwest 185 213 3,900 -353 Descending FlightAware ADS-B
Sat 08:40:13 AM 39.9391 -74.9252 230° Southwest 183 211 3,900 -667 Level FlightAware ADS-B
Sat 08:40:18 AM 39.9364 -74.9296 231° Southwest 180 207 3,800 -571 Descending FlightAware ADS-B
Sat 08:40:34 AM 39.9285 -74.9430 232° Southwest 172 198 3,700 -500 Descending FlightAware ADS-B
Sat 08:40:42 AM 39.9246 -74.9498 233° Southwest 163 188 3,600 -500 Descending FlightAware ADS-B
Sat 08:40:46 AM 39.9235 -74.9524 241° Southwest 158 182 3,600 -857 Level FlightAware ADS-B
Sat 08:40:49 AM 39.9226 -74.9553 248° West 154 177 3,500 -2,000 Descending FlightAware ADS-B
Sat 08:40:52 AM 39.9223 -74.9584 263° West 152 175 3,400 -1,500 Descending FlightAware ADS-B
Sat 08:40:57 AM 39.9224 -74.9623 272° West 149 171 3,300 -1,333 Descending FlightAware ADS-B
Sat 08:41:01 AM 39.9226 -74.9663 274° West 151 174 3,200 -1,333 Descending FlightAware ADS-B
Sat 08:41:06 AM 39.9227 -74.9711 272° West 154 177 3,100 -600 Descending FlightAware ADS-B
Sat 08:41:11 AM 39.9225 -74.9759 267° West 154 177 3,100 -400 Level FlightAware ADS-B
Sat 08:41:21 AM 39.9217 -74.9849 263° West 155 178 3,000 -250 Descending FlightAware ADS-B
Sat 08:41:35 AM 39.9197 -74.9978 259° West 162 186 3,000  Level FlightAware ADS-B
Sat 08:41:50 AM 39.9169 -75.0126 256° West 164 189 3,000 -118 Level FlightAware ADS-B
Sat 08:42:26 AM 39.9102 -75.0467 256° West 165 190 2,900 -353 Descending FlightAware ADS-B
Sat 08:42:41 AM 39.9073 -75.0610 255° West 162 186 2,700 -1,000 Descending FlightAware ADS-B
Sat 08:42:56 AM 39.9044 -75.0759 256° West 159 183 2,400 -909 Descending FlightAware ADS-B
Sat 08:43:14 AM 39.9013 -75.0913 255° West 144 166 2,200 -727 Descending FlightAware ADS-B
Sat 08:43:29 AM 39.8990 -75.1031 256° West 131 151 2,000 -774 Descending FlightAware ADS-B
Sat 08:43:45 AM 39.8966 -75.1154 256° West 125 144 1,800 -750 Descending FlightAware ADS-B
Sat 08:44:01 AM 39.8944 -75.1267 256° West 130 150 1,600 -643 Descending FlightAware ADS-B
Sat 08:44:13 AM 39.8926 -75.1360 256° West 135 155 1,500 -692 Descending FlightAware ADS-B
Sat 08:44:27 AM 39.8903 -75.1470 255° West 130 150 1,300 -750 Descending FlightAware ADS-B
Sat 08:44:45 AM 39.8876 -75.1610 256° West 129 148 1,100 -667 Descending FlightAware ADS-B
Sat 08:45:03 AM 39.8849 -75.1745 255° West 129 148 900 -727 Descending FlightAware ADS-B
Sat 08:45:18 AM 39.8826 -75.1860 255° West 128 147 700 -774 Descending FlightAware ADS-B
Sat 08:45:34 AM 39.8802 -75.1980 255° West 127 146 500 -714 Descending FlightAware ADS-B
Sat 08:46:00 AM 39.8767 -75.2147 255° West 127 146 200 -391 Descending FAA TRACON SMA TRACON (SMA)
Sat 08:46:20 AM 39.8761 -75.2181 258° West 127 146 200  Level FAA TRACON SMA TRACON (SMA)
Sat 08:48:00 AM 39.8667 -75.2333 187° South  Level FlightAware Approximate

Login

Don't have an account? Register now (free) for customized features, flight alerts, and more!